KSCH/SCH METAR and TAF weather

Enter ICAO airport designator
Station Type Date Time Source
KSCH METAR 2020/04/08 19:46 UTC NOAA

KSCH 081946Z 28007KT 15SM OVC065 13/03 A2959


Station Type Date Time Source
KSCH Decoded METAR 2020/04/08 19:46 UTC NOAA

Schenectady Airport, NY, United States (KSCH) 42-51N 073-56W
Apr 08, 2020 - 03:46 PM EDT / 2020.04.08 1946 UTC
Wind: from the W (280 degrees) at 8 MPH (7 KT):0
Visibility: 15 mile(s):0
Sky conditions: overcast
Temperature: 55 F (13 C)
Dew Point: 37 F (3 C)
Relative Humidity: 50%
Pressure (altimeter): 29.59 in. Hg (1002 hPa)
ob: KSCH 081946Z 28007KT 15SM OVC065 13/03 A2959
cycle: 20

Station Type Date Time Source
KSCH TAF UTC NOAA

Error!

Example: see airport list